createdAt,value
2023-02-18T00:00:06.667Z,6.88
2023-02-18T00:02:39.450Z,7.13
2023-02-18T00:05:09.775Z,6.70
2023-02-18T00:07:40.387Z,7.53
2023-02-18T00:10:12.993Z,6.28
2023-02-18T00:12:43.265Z,7.82
2023-02-18T00:15:16.496Z,6.57
2023-02-18T00:17:53.941Z,7.55
2023-02-18T00:20:24.046Z,7.03
2023-02-18T00:22:54.227Z,7.80
2023-02-18T00:25:24.673Z,6.82
2023-02-18T00:27:55.078Z,6.35
2023-02-18T00:30:25.387Z,7.18
2023-02-18T00:32:58.179Z,6.43
2023-02-18T00:35:28.227Z,6.45
2023-02-18T00:37:58.422Z,7.40
2023-02-18T00:40:28.549Z,7.28
2023-02-18T00:42:58.794Z,7.13
2023-02-18T00:45:28.919Z,7.65
2023-02-18T00:48:01.868Z,7.93
2023-02-18T00:50:32.013Z,7.75
2023-02-18T00:53:02.346Z,7.68
2023-02-18T00:55:32.456Z,7.32
2023-02-18T00:58:02.767Z,7.03
2023-02-18T01:00:33.035Z,6.50
2023-02-18T01:03:18.002Z,7.53
2023-02-18T01:05:50.232Z,7.70
2023-02-18T01:08:21.224Z,7.32
2023-02-18T01:13:22.139Z,6.05
2023-02-18T01:15:52.420Z,5.60
2023-02-18T01:18:26.002Z,7.15
2023-02-18T01:20:58.836Z,7.78
2023-02-18T01:23:29.153Z,7.22
2023-02-18T01:26:00.922Z,6.45
2023-02-18T01:28:31.254Z,4.78
2023-02-18T01:31:01.646Z,5.43
2023-02-18T01:33:34.350Z,6.10
2023-02-18T01:36:04.449Z,6.20
2023-02-18T01:38:34.825Z,6.28
2023-02-18T01:41:05.398Z,6.13
2023-02-18T01:43:36.154Z,6.03
2023-02-18T01:46:24.923Z,6.30
2023-02-18T01:49:01.682Z,6.13
2023-02-18T01:51:35.337Z,5.35
2023-02-18T01:54:09.518Z,5.85
2023-02-18T01:56:43.838Z,6.05
2023-02-18T01:59:17.363Z,5.10
2023-02-18T02:01:48.821Z,6.57
2023-02-18T02:04:21.704Z,6.03
2023-02-18T02:06:51.978Z,6.13
2023-02-18T02:09:25.421Z,5.85
2023-02-18T02:12:28.101Z,5.65
2023-02-18T02:15:16.192Z,5.05
2023-02-18T02:17:59.122Z,4.85
2023-02-18T02:21:04.924Z,4.72
2023-02-18T02:24:07.062Z,4.75
2023-02-18T02:27:15.889Z,4.18
2023-02-18T02:30:15.639Z,5.22
2023-02-18T02:33:18.232Z,5.13
2023-02-18T02:35:55.763Z,3.15
2023-02-18T02:38:33.949Z,4.45
2023-02-18T02:41:15.547Z,4.68
2023-02-18T02:43:52.639Z,4.72
2023-02-18T02:46:33.097Z,4.53
2023-02-18T02:49:07.371Z,4.03
2023-02-18T02:51:49.773Z,4.10
2023-02-18T02:54:24.726Z,4.13
2023-02-18T02:57:10.771Z,3.88
2023-02-18T02:59:46.191Z,2.58
2023-02-18T03:02:29.678Z,2.72
2023-02-18T03:05:13.715Z,3.47
2023-02-18T03:08:21.861Z,2.78
2023-02-18T03:11:00.120Z,2.92
2023-02-18T03:13:45.404Z,3.35
2023-02-18T03:16:25.019Z,3.53
2023-02-18T03:19:02.352Z,2.63
2023-02-18T03:21:36.064Z,2.42
2023-02-18T03:24:13.718Z,2.60
2023-02-18T03:29:18.798Z,2.67
2023-02-18T03:31:54.265Z,2.28
2023-02-18T03:34:29.478Z,2.17
2023-02-18T03:37:01.131Z,2.28
2023-02-18T03:39:37.165Z,2.45
2023-02-18T03:42:07.701Z,2.75
2023-02-18T03:44:38.069Z,2.25
2023-02-18T03:47:08.597Z,2.33
2023-02-18T03:49:38.876Z,2.20
2023-02-18T03:52:09.616Z,1.73
2023-02-18T03:54:42.470Z,2.25
2023-02-18T03:57:12.738Z,1.95
2023-02-18T03:59:46.199Z,1.75
2023-02-18T04:02:16.371Z,2.10
2023-02-18T04:04:46.395Z,1.52
2023-02-18T04:07:16.870Z,2.13
2023-02-18T04:09:49.563Z,1.25
2023-02-18T04:12:19.819Z,1.40
2023-02-18T04:14:50.026Z,2.38
2023-02-18T04:17:20.104Z,1.85
2023-02-18T04:19:50.141Z,1.98
2023-02-18T04:22:20.298Z,1.90
2023-02-18T04:24:53.090Z,1.35
2023-02-18T04:27:23.395Z,1.20
2023-02-18T04:29:53.699Z,1.67
2023-02-18T04:32:24.041Z,1.42
2023-02-18T04:34:54.141Z,1.30
2023-02-18T04:37:24.382Z,2.10
2023-02-18T04:39:57.026Z,2.40
2023-02-18T04:42:27.167Z,1.88
2023-02-18T04:44:57.383Z,2.58
2023-02-18T04:47:27.787Z,2.10
2023-02-18T04:49:58.128Z,2.75
2023-02-18T04:52:28.296Z,2.33
2023-02-18T04:55:08.830Z,3.00
2023-02-18T04:57:38.930Z,2.85
2023-02-18T05:00:12.969Z,3.08
2023-02-18T05:02:43.050Z,2.90
2023-02-18T05:05:13.500Z,2.58
2023-02-18T05:07:45.099Z,2.55
2023-02-18T05:10:20.800Z,2.17
2023-02-18T05:12:50.883Z,3.17
2023-02-18T05:15:21.137Z,2.92
2023-02-18T05:17:51.304Z,2.42
2023-02-18T05:20:21.866Z,2.65
2023-02-18T05:22:52.175Z,2.63
2023-02-18T05:25:25.048Z,2.40
2023-02-18T05:27:55.218Z,2.25
2023-02-18T05:30:25.359Z,1.90
2023-02-18T05:32:55.493Z,1.42
2023-02-18T05:35:25.583Z,2.08
2023-02-18T05:37:55.707Z,2.83
2023-02-18T05:40:28.598Z,1.92
2023-02-18T05:42:58.977Z,1.85
2023-02-18T05:45:29.228Z,1.67
2023-02-18T05:47:59.628Z,1.75
2023-02-18T05:50:29.735Z,3.20
2023-02-18T05:52:59.915Z,2.80
2023-02-18T05:55:33.320Z,3.97
2023-02-18T05:58:03.517Z,3.78
2023-02-18T06:00:33.752Z,3.45
2023-02-18T06:03:03.962Z,2.97
2023-02-18T06:05:34.045Z,2.42
2023-02-18T06:08:04.572Z,2.20
2023-02-18T06:10:46.493Z,2.00
2023-02-18T06:13:16.782Z,2.33
2023-02-18T06:15:46.996Z,3.28
2023-02-18T06:18:17.104Z,2.50
2023-02-18T06:20:47.205Z,2.13
2023-02-18T06:23:17.374Z,2.70
2023-02-18T06:25:52.334Z,1.70
2023-02-18T06:28:22.612Z,1.52
2023-02-18T06:30:52.868Z,1.35
2023-02-18T06:33:22.987Z,1.17
2023-02-18T06:35:58.150Z,1.30
2023-02-18T06:38:28.551Z,0.90
2023-02-18T06:41:01.250Z,0.80
2023-02-18T06:43:31.482Z,0.85
2023-02-18T06:46:01.741Z,1.02
2023-02-18T06:48:32.308Z,1.55
2023-02-18T06:51:02.845Z,1.25
2023-02-18T06:53:33.186Z,0.88
2023-02-18T06:56:06.017Z,0.98
2023-02-18T06:58:36.524Z,1.65
2023-02-18T07:01:07.015Z,1.38
2023-02-18T07:03:37.633Z,1.27
2023-02-18T07:06:08.726Z,0.90
2023-02-18T07:08:39.327Z,0.98
2023-02-18T07:11:11.936Z,1.38
2023-02-18T07:13:42.024Z,0.70
2023-02-18T07:16:12.310Z,0.70
2023-02-18T07:18:42.827Z,1.95
2023-02-18T07:21:12.925Z,1.33
2023-02-18T07:23:43.962Z,0.90
2023-02-18T07:26:17.959Z,0.68
2023-02-18T07:28:48.325Z,0.88
2023-02-18T07:31:18.598Z,1.70
2023-02-18T07:33:48.765Z,1.48
2023-02-18T07:36:18.873Z,1.00
2023-02-18T07:38:49.454Z,1.20
2023-02-18T07:41:24.360Z,1.50
2023-02-18T07:43:54.540Z,1.17
2023-02-18T07:46:24.849Z,1.10
2023-02-18T07:48:55.159Z,1.40
2023-02-18T07:51:25.197Z,1.00
2023-02-18T07:53:55.534Z,0.77
2023-02-18T07:56:34.482Z,0.95
2023-02-18T07:59:04.865Z,1.42
2023-02-18T08:01:34.911Z,1.05
2023-02-18T08:04:05.302Z,0.88
2023-02-18T08:06:38.484Z,0.90
2023-02-18T08:09:09.302Z,0.90
2023-02-18T08:11:44.460Z,1.60
2023-02-18T08:14:15.307Z,1.10
2023-02-18T08:16:45.462Z,1.15
2023-02-18T08:19:15.654Z,1.80
2023-02-18T08:21:46.073Z,0.80
2023-02-18T08:24:16.191Z,1.63
2023-02-18T08:27:00.303Z,0.90
2023-02-18T08:29:31.179Z,1.15
2023-02-18T08:32:02.678Z,0.90
2023-02-18T08:34:33.120Z,1.02
2023-02-18T08:37:05.099Z,0.98
2023-02-18T08:39:39.962Z,0.98
2023-02-18T08:42:13.138Z,0.68
2023-02-18T08:44:43.370Z,0.50
2023-02-18T08:48:16.816Z,0.98
2023-02-18T08:50:03.722Z,1.10
2023-02-18T08:52:34.072Z,0.65
2023-02-18T08:55:04.427Z,0.82
2023-02-18T08:57:37.212Z,0.60
2023-02-18T09:00:08.807Z,0.80
2023-02-18T09:02:39.102Z,0.70
2023-02-18T09:05:17.059Z,1.17
2023-02-18T09:07:50.629Z,0.88
2023-02-18T09:10:21.149Z,0.88
2023-02-18T09:12:53.841Z,1.20
2023-02-18T09:15:24.010Z,0.65
2023-02-18T09:17:54.130Z,1.00
2023-02-18T09:20:24.450Z,0.77
2023-02-18T09:22:54.707Z,0.52
2023-02-18T09:25:27.916Z,0.63
2023-02-18T09:28:08.143Z,1.15
2023-02-18T09:30:38.587Z,1.00
2023-02-18T09:33:08.790Z,1.20
2023-02-18T09:35:42.745Z,1.23
2023-02-18T09:38:13.290Z,0.90
2023-02-18T09:40:47.269Z,1.23
2023-02-18T09:43:30.878Z,0.85
2023-02-18T09:46:04.410Z,1.00
2023-02-18T09:48:37.991Z,0.68
2023-02-18T09:51:08.926Z,0.88
2023-02-18T09:53:39.399Z,1.73
2023-02-18T09:56:10.079Z,0.95
2023-02-18T09:58:43.858Z,1.23
2023-02-18T10:01:23.164Z,1.13
2023-02-18T10:03:55.684Z,0.95
2023-02-18T10:06:29.096Z,1.38
2023-02-18T10:09:00.031Z,1.35
2023-02-18T10:14:06.072Z,1.08
2023-02-18T10:16:36.255Z,1.70
2023-02-18T10:19:15.844Z,1.05
2023-02-18T10:21:46.735Z,1.65
2023-02-18T10:24:28.874Z,1.15
2023-02-18T10:26:59.120Z,1.25
2023-02-18T10:29:32.589Z,1.83
2023-02-18T10:32:10.259Z,1.60
2023-02-18T10:34:45.140Z,1.10
2023-02-18T10:37:31.472Z,2.03
2023-02-18T10:40:12.171Z,1.40
2023-02-18T10:42:52.253Z,1.77
2023-02-18T10:45:36.714Z,1.83
2023-02-18T10:48:32.271Z,1.92
2023-02-18T10:51:06.020Z,2.13
2023-02-18T10:56:48.567Z,2.05
2023-02-18T10:59:24.252Z,2.78
2023-02-18T11:02:02.110Z,2.20
2023-02-18T11:04:50.148Z,2.03
2023-02-18T11:07:25.098Z,2.65
2023-02-18T11:09:57.452Z,2.28
2023-02-18T11:12:31.087Z,2.05
2023-02-18T11:15:20.201Z,2.25
2023-02-18T11:17:55.007Z,1.70
2023-02-18T11:20:35.166Z,1.83
2023-02-18T11:23:22.194Z,2.05
2023-02-18T11:26:03.587Z,2.25
2023-02-18T11:28:45.695Z,1.48
2023-02-18T11:31:23.803Z,1.90
2023-02-18T11:33:59.919Z,1.25
2023-02-18T11:36:42.936Z,1.40
2023-02-18T11:39:24.628Z,1.25
2023-02-18T11:41:59.711Z,1.40
2023-02-18T11:44:34.531Z,1.25
2023-02-18T11:47:06.551Z,1.40
2023-02-18T11:49:39.382Z,2.05
2023-02-18T11:52:19.927Z,1.33
2023-02-18T11:55:04.749Z,1.88
2023-02-18T11:57:36.794Z,1.88
2023-02-18T12:00:08.587Z,1.83
2023-02-18T12:02:41.188Z,1.73
2023-02-18T12:05:21.537Z,1.20
2023-02-18T12:07:54.195Z,2.90
2023-02-18T12:10:30.446Z,1.85
2023-02-18T12:13:05.522Z,1.50
2023-02-18T12:15:44.830Z,1.60
2023-02-18T12:18:51.096Z,1.67
2023-02-18T12:21:40.889Z,2.10
2023-02-18T12:24:23.164Z,2.08
2023-02-18T12:27:03.638Z,2.20
2023-02-18T12:29:53.491Z,1.67
2023-02-18T12:32:32.973Z,1.80
2023-02-18T12:35:22.095Z,1.40
2023-02-18T12:38:21.441Z,1.80
2023-02-18T12:41:10.787Z,2.00
2023-02-18T12:43:55.438Z,1.75
2023-02-18T12:46:42.409Z,1.98
2023-02-18T12:49:43.795Z,2.35
2023-02-18T12:52:25.213Z,2.08
2023-02-18T12:55:26.655Z,2.08
2023-02-18T12:58:07.901Z,2.35
2023-02-18T13:00:56.992Z,2.33
2023-02-18T13:04:04.178Z,2.15
2023-02-18T13:07:11.613Z,2.17
2023-02-18T13:09:53.378Z,3.05
2023-02-18T13:12:32.883Z,3.13
2023-02-18T13:15:09.397Z,2.75
2023-02-18T13:17:42.568Z,2.80
2023-02-18T13:20:17.444Z,3.47
2023-02-18T13:22:50.242Z,2.95
2023-02-18T13:25:22.612Z,3.53
2023-02-18T13:28:07.355Z,3.33
2023-02-18T13:30:41.442Z,2.42
2023-02-18T13:33:19.651Z,3.15
2023-02-18T13:35:55.416Z,3.80
2023-02-18T13:38:51.402Z,3.20
2023-02-18T13:41:24.918Z,3.38
2023-02-18T13:43:57.720Z,3.92
2023-02-18T13:46:28.531Z,3.53
2023-02-18T13:49:12.305Z,2.97
2023-02-18T13:51:45.234Z,3.50
2023-02-18T13:54:28.068Z,3.65
2023-02-18T13:57:03.803Z,3.42
2023-02-18T13:59:39.370Z,3.35
2023-02-18T14:02:37.252Z,4.28
2023-02-18T14:05:25.523Z,3.85
2023-02-18T14:08:06.278Z,4.38
2023-02-18T14:10:38.271Z,3.55
2023-02-18T14:13:26.331Z,4.50
2023-02-18T14:16:01.515Z,3.72
2023-02-18T14:18:53.198Z,3.58
2023-02-18T14:21:37.894Z,3.88
2023-02-18T14:24:15.589Z,3.97
2023-02-18T14:26:51.514Z,4.85
2023-02-18T14:29:30.349Z,4.47
2023-02-18T14:32:05.296Z,4.85
2023-02-18T14:34:59.521Z,4.35
2023-02-18T14:38:09.747Z,4.78
2023-02-18T14:41:01.866Z,4.20
2023-02-18T14:44:01.809Z,4.80
2023-02-18T14:46:42.885Z,5.18
2023-02-18T14:49:29.582Z,3.50
2023-02-18T14:52:02.944Z,4.05
2023-02-18T14:54:34.276Z,3.78
2023-02-18T14:57:09.678Z,4.32
2023-02-18T14:59:43.600Z,4.13
2023-02-18T15:02:22.497Z,4.43
2023-02-18T15:04:52.932Z,3.88
2023-02-18T15:07:26.140Z,8.07
2023-02-18T15:09:57.740Z,4.10
2023-02-18T15:12:30.645Z,3.70
2023-02-18T15:15:05.720Z,3.05
2023-02-18T15:17:36.124Z,3.35
2023-02-18T15:20:09.651Z,2.53
2023-02-18T15:22:43.353Z,3.22
2023-02-18T15:25:26.533Z,2.60
2023-02-18T15:27:57.622Z,2.22
2023-02-18T15:30:31.166Z,3.08
2023-02-18T15:33:03.525Z,2.47
2023-02-18T15:35:35.934Z,2.30
2023-02-18T15:38:08.940Z,2.03
2023-02-18T15:40:41.264Z,1.70
2023-02-18T15:43:13.518Z,2.40
2023-02-18T15:45:46.775Z,1.98
2023-02-18T15:48:27.685Z,2.08
2023-02-18T15:51:08.128Z,2.47
2023-02-18T15:53:51.007Z,2.03
2023-02-18T15:56:34.757Z,2.28
2023-02-18T15:59:12.668Z,1.90
2023-02-18T16:01:43.158Z,2.35
2023-02-18T16:04:17.971Z,3.10
2023-02-18T16:06:50.378Z,2.15
2023-02-18T16:09:27.212Z,2.72
2023-02-18T16:12:02.245Z,2.53
2023-02-18T16:14:35.852Z,2.03
2023-02-18T16:17:12.665Z,2.78
2023-02-18T16:20:03.379Z,2.50
2023-02-18T16:22:39.192Z,2.55
2023-02-18T16:25:20.464Z,3.67
2023-02-18T16:27:55.387Z,3.45
2023-02-18T16:30:28.972Z,3.20
2023-02-18T16:33:00.685Z,3.15
2023-02-18T16:35:47.456Z,3.25
2023-02-18T16:38:21.093Z,3.22
2023-02-18T16:40:54.971Z,2.80
2023-02-18T16:43:27.518Z,2.97
2023-02-18T16:46:00.480Z,1.75
2023-02-18T16:48:35.540Z,2.05
2023-02-18T16:51:08.082Z,2.42
2023-02-18T16:53:38.353Z,3.00
2023-02-18T16:56:18.083Z,2.47
2023-02-18T16:58:48.459Z,2.85
2023-02-18T17:01:28.856Z,2.83
2023-02-18T17:03:59.644Z,2.67
2023-02-18T17:06:30.329Z,2.80
2023-02-18T17:09:00.836Z,3.38
2023-02-18T17:11:35.686Z,2.58
2023-02-18T17:14:06.387Z,3.00
2023-02-18T17:16:36.491Z,2.95
2023-02-18T17:19:06.620Z,2.90
2023-02-18T17:21:36.828Z,2.70
2023-02-18T17:24:07.690Z,2.80
2023-02-18T17:26:40.396Z,3.55
2023-02-18T17:29:10.782Z,3.60
2023-02-18T17:31:44.824Z,3.55
2023-02-18T17:34:18.562Z,3.38
2023-02-18T17:36:48.647Z,3.13
2023-02-18T17:39:21.026Z,3.30
2023-02-18T17:41:53.858Z,3.50
2023-02-18T17:44:26.195Z,4.28
2023-02-18T17:46:56.295Z,4.18
2023-02-18T17:49:26.334Z,4.15
2023-02-18T17:51:58.091Z,5.65
2023-02-18T17:54:28.765Z,3.67
2023-02-18T17:57:01.549Z,3.67
2023-02-18T17:59:31.824Z,4.70
2023-02-18T18:02:02.249Z,4.00
2023-02-18T18:04:32.381Z,4.60
2023-02-18T18:07:02.624Z,4.05
2023-02-18T18:09:32.966Z,4.50
2023-02-18T18:12:06.014Z,4.88
2023-02-18T18:14:36.148Z,5.32
2023-02-18T18:17:06.296Z,3.75
2023-02-18T18:19:38.167Z,4.20
2023-02-18T18:22:08.314Z,3.05
2023-02-18T18:24:38.466Z,3.92
2023-02-18T18:27:13.768Z,5.03
2023-02-18T18:29:43.852Z,3.50
2023-02-18T18:32:14.074Z,3.92
2023-02-18T18:34:44.424Z,3.65
2023-02-18T18:37:14.914Z,3.72
2023-02-18T18:39:45.056Z,3.80
2023-02-18T18:42:17.894Z,3.55
2023-02-18T18:44:48.057Z,3.00
2023-02-18T18:47:18.178Z,3.17
2023-02-18T18:49:48.186Z,4.10
2023-02-18T18:52:23.997Z,3.90
2023-02-18T18:54:54.047Z,3.58
2023-02-18T18:57:27.686Z,4.45
2023-02-18T18:59:57.927Z,4.47
2023-02-18T19:02:28.683Z,4.18
2023-02-18T19:04:58.996Z,4.10
2023-02-18T19:07:29.201Z,4.45
2023-02-18T19:09:59.420Z,3.40
2023-02-18T19:12:32.458Z,5.85
2023-02-18T19:15:02.791Z,5.30
2023-02-18T19:17:32.950Z,5.13
2023-02-18T19:20:03.033Z,5.00
2023-02-18T19:22:33.253Z,4.20
2023-02-18T19:25:03.920Z,4.95
2023-02-18T19:27:40.425Z,5.57
2023-02-18T19:30:12.514Z,4.75
2023-02-18T19:32:42.639Z,5.20
2023-02-18T19:35:13.212Z,5.65
2023-02-18T19:37:43.635Z,4.78
2023-02-18T19:40:16.613Z,4.78
2023-02-18T19:42:50.238Z,5.68
2023-02-18T19:45:21.465Z,5.88
2023-02-18T19:47:56.839Z,6.80
2023-02-18T19:50:31.065Z,7.07
2023-02-18T19:53:02.215Z,5.72
2023-02-18T19:55:32.447Z,6.05
2023-02-18T19:58:06.457Z,6.88
2023-02-18T20:00:36.765Z,6.75
2023-02-18T20:03:07.096Z,7.57
2023-02-18T20:05:40.934Z,7.28
2023-02-18T20:08:11.267Z,7.03
2023-02-18T20:10:41.512Z,7.05
2023-02-18T20:13:14.418Z,8.00
2023-02-18T20:15:44.841Z,7.38
2023-02-18T20:18:15.026Z,7.85
2023-02-18T20:20:50.413Z,7.60
2023-02-18T20:23:21.328Z,6.55
2023-02-18T20:25:51.436Z,7.57
2023-02-18T20:28:24.337Z,9.20
2023-02-18T20:31:05.722Z,8.65
2023-02-18T20:33:36.035Z,9.23
2023-02-18T20:36:08.670Z,6.72
2023-02-18T20:38:39.865Z,8.80
2023-02-18T20:41:11.761Z,7.65
2023-02-18T20:43:44.797Z,7.25
2023-02-18T20:46:17.939Z,8.43
2023-02-18T20:48:49.787Z,8.43
2023-02-18T20:51:22.079Z,7.32
2023-02-18T20:53:53.485Z,7.90
2023-02-18T20:56:24.629Z,6.47
2023-02-18T20:58:57.393Z,7.10
2023-02-18T21:01:27.461Z,7.35
2023-02-18T21:03:57.741Z,8.95
2023-02-18T21:06:28.698Z,7.93
2023-02-18T21:08:58.998Z,7.80
2023-02-18T21:11:30.048Z,8.88
2023-02-18T21:16:38.674Z,9.25
2023-02-18T21:19:09.319Z,9.85
2023-02-18T21:21:39.802Z,9.23
2023-02-18T21:24:10.374Z,9.23
2023-02-18T21:26:40.704Z,10.95
2023-02-18T21:29:15.645Z,9.50
2023-02-18T21:31:51.750Z,12.07
2023-02-18T21:34:23.128Z,10.98
2023-02-18T21:36:53.456Z,11.25
2023-02-18T21:39:23.540Z,10.70
2023-02-18T21:41:53.759Z,10.48
2023-02-18T21:44:40.170Z,8.82
2023-02-18T21:47:11.841Z,8.38
2023-02-18T21:49:42.252Z,9.02
2023-02-18T21:52:12.310Z,8.55
2023-02-18T21:54:44.765Z,9.35
2023-02-18T21:57:18.001Z,8.65
2023-02-18T21:59:51.073Z,10.07
2023-02-18T22:02:22.940Z,9.25
2023-02-18T22:04:54.073Z,9.20
2023-02-18T22:12:26.822Z,8.93
2023-02-18T22:14:59.597Z,9.68
2023-02-18T22:17:33.278Z,9.35
2023-02-18T22:20:05.499Z,9.60
2023-02-18T22:22:37.328Z,9.77
2023-02-18T22:25:08.600Z,10.13
2023-02-18T22:27:39.030Z,10.05
2023-02-18T22:30:13.263Z,9.10
2023-02-18T22:32:43.510Z,7.75
2023-02-18T22:35:15.653Z,8.07
2023-02-18T22:37:46.836Z,7.88
2023-02-18T22:40:16.970Z,7.80
2023-02-18T22:42:47.237Z,6.72
2023-02-18T22:45:20.127Z,7.75
2023-02-18T22:47:50.216Z,7.55
2023-02-18T22:50:20.680Z,6.70
2023-02-18T22:52:51.043Z,7.07
2023-02-18T22:55:27.286Z,7.95
2023-02-18T22:57:57.564Z,6.80
2023-02-18T23:00:30.889Z,6.10
2023-02-18T23:03:01.009Z,6.40
2023-02-18T23:05:31.086Z,6.40
2023-02-18T23:08:01.268Z,6.43
2023-02-18T23:10:31.379Z,6.40
2023-02-18T23:13:01.758Z,6.10
2023-02-18T23:15:34.512Z,6.47
2023-02-18T23:18:05.079Z,5.57
2023-02-18T23:20:47.568Z,5.15
2023-02-18T23:23:17.697Z,6.50
2023-02-18T23:25:47.885Z,5.30
2023-02-18T23:28:18.228Z,6.47
2023-02-18T23:30:50.938Z,5.53
2023-02-18T23:33:21.427Z,5.32
2023-02-18T23:35:51.596Z,5.72
2023-02-18T23:38:21.653Z,5.80
2023-02-18T23:40:52.027Z,5.30
2023-02-18T23:43:22.125Z,5.15
2023-02-18T23:45:55.052Z,5.78
2023-02-18T23:48:25.226Z,5.35
2023-02-18T23:51:03.214Z,6.22
2023-02-18T23:53:34.896Z,5.80
2023-02-18T23:56:09.319Z,5.15
2023-02-18T23:58:39.614Z,5.47
